Time;durP1;ratioP1;P1;durP2;ratioP2;P2;SDS_P1;SDS_P2;PMS_P1;PMS_P2;Temp;Humidity;BMP_temperature;BMP_pressure;BME280_temperature;BME280_humidity;BME280_pressure;Samples;Min_cycle;Max_cycle;Signal;HPM_P1;HPM_P2
2021/10/24 00:02:21;;;;;;;18.20;16.67;;;6.20;99.90;;;;;;5071594;28;20826;-67
2021/10/24 00:04:48;;;;;;;18.37;16.70;;;6.10;99.90;;;;;;5071818;28;20439;-67
2021/10/24 00:07:14;;;;;;;18.17;16.43;;;6.10;99.90;;;;;;5071715;28;20443;-67
2021/10/24 00:09:41;;;;;;;18.90;17.13;;;6.10;99.90;;;;;;5071429;28;20435;-67
2021/10/24 00:12:08;;;;;;;19.63;17.93;;;6.10;99.90;;;;;;5071351;28;20459;-67
2021/10/24 00:14:34;;;;;;;17.50;16.00;;;6.10;99.90;;;;;;5071156;28;20858;-68
2021/10/24 00:17:01;;;;;;;19.80;17.93;;;6.00;99.90;;;;;;5071563;28;20956;-68
2021/10/24 00:19:29;;;;;;;18.90;17.40;;;6.00;99.90;;;;;;5071172;28;20482;-68
2021/10/24 00:21:56;;;;;;;19.10;17.20;;;6.00;99.90;;;;;;5071405;28;20467;-68
2021/10/24 00:24:23;;;;;;;18.87;17.43;;;6.00;99.90;;;;;;5071521;28;20459;-67
2021/10/24 00:26:49;;;;;;;18.13;16.70;;;6.00;99.90;;;;;;5071123;28;20447;-68
2021/10/24 00:29:16;;;;;;;18.57;16.53;;;5.90;99.90;;;;;;5071399;28;20777;-68
2021/10/24 00:31:43;;;;;;;18.50;16.83;;;5.90;99.90;;;;;;5071183;28;20475;-68
2021/10/24 00:34:09;;;;;;;17.40;15.70;;;5.90;99.90;;;;;;5071410;28;20966;-68
2021/10/24 00:36:37;;;;;;;18.77;17.00;;;5.90;99.90;;;;;;5071358;28;20439;-68
2021/10/24 00:39:05;;;;;;;19.00;17.07;;;5.90;99.90;;;;;;5070665;28;20483;-68
2021/10/24 00:41:32;;;;;;;17.57;16.23;;;5.90;99.90;;;;;;5071209;28;20459;-68
2021/10/24 00:43:59;;;;;;;18.50;16.63;;;5.80;99.90;;;;;;5071380;28;20455;-68
2021/10/24 00:46:27;;;;;;;19.20;17.60;;;5.80;99.90;;;;;;5071245;28;20455;-68
2021/10/24 00:48:54;;;;;;;22.20;20.13;;;5.80;99.90;;;;;;5070978;28;20921;-68
2021/10/24 00:51:20;;;;;;;18.87;17.20;;;5.80;99.90;;;;;;5071122;28;20475;-68
2021/10/24 00:53:49;;;;;;;17.40;16.07;;;5.80;99.90;;;;;;5071127;28;20450;-68
2021/10/24 00:56:16;;;;;;;18.83;17.00;;;5.80;99.90;;;;;;5071093;28;20440;-68
2021/10/24 00:58:42;;;;;;;19.20;17.30;;;5.70;99.90;;;;;;5070638;28;20818;-67
2021/10/24 01:01:09;;;;;;;18.80;17.30;;;5.70;99.90;;;;;;5071053;28;20471;-68
2021/10/24 01:03:37;;;;;;;17.97;16.07;;;5.70;99.90;;;;;;5071185;28;20466;-68
2021/10/24 01:06:04;;;;;;;18.10;15.63;;;5.70;99.90;;;;;;5071100;28;20440;-68
2021/10/24 01:08:31;;;;;;;18.97;17.40;;;5.70;99.90;;;;;;5070809;28;20757;-68
2021/10/24 01:10:59;;;;;;;18.07;16.27;;;5.70;99.90;;;;;;5070925;28;20987;-68
2021/10/24 01:13:26;;;;;;;18.23;16.40;;;5.60;99.90;;;;;;5070967;28;20450;-68
2021/10/24 01:16:07;;;;;;;18.30;16.73;;;5.60;99.90;;;;;;5071037;28;20458;-67
2021/10/24 01:18:34;;;;;;;16.80;15.30;;;5.60;99.90;;;;;;5070863;28;20486;-68
2021/10/24 01:21:02;;;;;;;17.00;15.40;;;5.60;99.90;;;;;;5070719;28;20474;-68
2021/10/24 01:23:29;;;;;;;18.20;16.40;;;5.60;99.90;;;;;;5070890;28;20451;-68
2021/10/24 01:25:56;;;;;;;18.53;16.20;;;5.50;99.90;;;;;;5070557;28;20447;-68
2021/10/24 01:28:22;;;;;;;17.10;15.30;;;5.50;99.90;;;;;;5070869;28;20455;-68
2021/10/24 01:30:51;;;;;;;17.20;15.80;;;5.50;99.90;;;;;;5070616;28;20566;-68
2021/10/24 01:33:18;;;;;;;18.57;16.97;;;5.40;99.90;;;;;;5070357;28;20462;-68
2021/10/24 01:35:51;;;;;;;17.23;15.60;;;5.40;99.90;;;;;;5070564;28;20451;-68
2021/10/24 01:38:20;;;;;;;17.10;15.70;;;5.40;99.90;;;;;;5070570;28;20468;-67
2021/10/24 01:40:46;;;;;;;18.37;16.63;;;5.40;99.90;;;;;;5070526;28;20469;-67
2021/10/24 01:43:13;;;;;;;17.73;15.90;;;5.40;99.90;;;;;;5070750;28;20811;-68
2021/10/24 01:45:40;;;;;;;18.70;17.10;;;5.40;99.90;;;;;;5070173;28;20443;-68
2021/10/24 01:48:07;;;;;;;18.70;16.90;;;5.30;99.90;;;;;;5070459;28;20825;-68
2021/10/24 01:50:34;;;;;;;17.17;15.57;;;5.30;99.90;;;;;;5070553;28;20454;-68
2021/10/24 01:53:01;;;;;;;19.37;17.40;;;5.30;99.90;;;;;;5073886;28;20442;-68
2021/10/24 01:55:31;;;;;;;18.57;16.90;;;5.20;99.90;;;;;;5073948;28;20439;-68
2021/10/24 01:57:57;;;;;;;17.07;15.67;;;5.20;99.90;;;;;;5053990;28;20470;-68
2021/10/24 02:00:25;;;;;;;17.30;15.70;;;5.10;99.90;;;;;;5053994;28;20486;-67
2021/10/24 02:02:52;;;;;;;27.07;16.83;;;5.10;99.90;;;;;;5054001;28;20960;-68
2021/10/24 02:05:19;;;;;;;18.73;17.07;;;5.10;99.90;;;;;;5066395;28;20458;-68
2021/10/24 02:07:46;;;;;;;18.63;17.03;;;5.10;99.90;;;;;;5073854;28;20435;-68
2021/10/24 02:10:14;;;;;;;19.33;17.10;;;5.00;99.90;;;;;;5073900;28;20432;-68
2021/10/24 02:12:43;;;;;;;19.93;17.80;;;5.00;99.90;;;;;;5073599;28;20463;-68
2021/10/24 02:15:11;;;;;;;17.47;15.97;;;5.00;99.90;;;;;;5073866;28;20446;-68
2021/10/24 02:17:38;;;;;;;18.13;16.43;;;5.00;99.90;;;;;;5073866;28;20439;-68
2021/10/24 02:20:06;;;;;;;18.93;17.27;;;5.00;99.90;;;;;;5073518;28;20483;-67
2021/10/24 02:22:33;;;;;;;22.47;17.83;;;4.90;99.90;;;;;;5073412;28;20836;-68
2021/10/24 02:25:00;;;;;;;19.67;17.70;;;4.90;99.90;;;;;;5073712;28;20448;-67
2021/10/24 02:27:27;;;;;;;20.30;18.23;;;4.80;99.90;;;;;;5073761;28;20462;-67
2021/10/24 02:29:55;;;;;;;17.43;16.00;;;4.80;99.90;;;;;;5073360;28;20435;-68
2021/10/24 02:32:22;;;;;;;18.47;16.90;;;4.80;99.90;;;;;;5073364;28;20471;-68
2021/10/24 02:34:49;;;;;;;18.27;16.40;;;4.80;99.90;;;;;;5073273;28;20444;-67
2021/10/24 02:37:16;;;;;;;18.40;16.60;;;4.80;99.90;;;;;;5073519;28;20451;-68
2021/10/24 02:39:43;;;;;;;20.50;18.37;;;4.70;99.90;;;;;;5073071;28;20498;-68
2021/10/24 02:42:09;;;;;;;17.10;15.70;;;4.70;99.90;;;;;;5073324;28;20467;-67
2021/10/24 02:44:36;;;;;;;18.30;16.40;;;4.70;99.90;;;;;;5073316;28;20451;-68
2021/10/24 02:47:05;;;;;;;18.93;17.20;;;4.70;99.90;;;;;;5073061;28;20455;-68
2021/10/24 02:49:31;;;;;;;17.93;16.13;;;4.60;99.90;;;;;;5072903;28;20446;-67
2021/10/24 02:51:58;;;;;;;18.63;17.10;;;4.60;99.90;;;;;;5072985;28;20471;-68
2021/10/24 02:54:26;;;;;;;20.83;17.30;;;4.60;99.90;;;;;;5073058;28;20447;-68
2021/10/24 02:56:54;;;;;;;20.13;17.40;;;4.60;99.90;;;;;;5073065;28;20794;-68
2021/10/24 02:59:21;;;;;;;18.60;16.90;;;4.60;99.90;;;;;;5072540;28;20483;-68
2021/10/24 03:01:48;;;;;;;18.87;16.87;;;4.60;99.90;;;;;;5072791;28;20463;-67
2021/10/24 03:04:17;;;;;;;19.43;17.57;;;4.60;99.90;;;;;;5072944;28;20447;-68
2021/10/24 03:06:43;;;;;;;18.03;16.47;;;4.60;99.90;;;;;;5072302;28;20447;-68
2021/10/24 03:09:10;;;;;;;18.93;17.10;;;4.60;99.90;;;;;;5072536;28;20458;-68
2021/10/24 03:11:37;;;;;;;18.33;16.53;;;4.60;99.90;;;;;;5072720;28;20836;-68
2021/10/24 03:14:04;;;;;;;20.57;17.97;;;4.50;99.90;;;;;;5072915;28;20451;-68
2021/10/24 03:16:32;;;;;;;18.33;16.53;;;4.50;99.90;;;;;;5072371;28;20859;-68
2021/10/24 03:18:58;;;;;;;18.40;16.60;;;4.50;99.90;;;;;;5072312;28;20486;-68
2021/10/24 03:21:27;;;;;;;18.30;16.50;;;4.50;99.90;;;;;;5072538;28;20978;-68
2021/10/24 03:23:53;;;;;;;18.17;16.33;;;4.50;99.90;;;;;;5072619;28;20447;-68
2021/10/24 03:26:20;;;;;;;21.97;17.27;;;4.50;99.90;;;;;;5072605;28;20454;-68
2021/10/24 03:28:47;;;;;;;18.67;16.57;;;4.40;99.90;;;;;;5071882;28;20450;-68
2021/10/24 03:31:14;;;;;;;20.20;15.63;;;4.40;99.90;;;;;;5072230;28;20478;-67
2021/10/24 03:33:41;;;;;;;18.37;16.47;;;4.40;99.90;;;;;;5072469;28;20443;-68
2021/10/24 03:36:07;;;;;;;18.30;16.47;;;4.40;99.90;;;;;;5072169;28;20443;-68
2021/10/24 03:38:35;;;;;;;18.70;16.70;;;4.40;99.90;;;;;;5071898;28;20443;-68
2021/10/24 03:41:02;;;;;;;18.07;16.33;;;4.40;99.90;;;;;;5071822;28;20528;-68
2021/10/24 03:43:29;;;;;;;18.93;15.87;;;4.40;99.90;;;;;;5072047;28;20447;-68
2021/10/24 03:45:56;;;;;;;22.40;17.30;;;4.30;99.90;;;;;;5072155;28;20444;-68
2021/10/24 03:48:23;;;;;;;20.77;18.70;;;4.30;99.90;;;;;;5071922;28;20462;-68
2021/10/24 03:50:50;;;;;;;19.10;17.07;;;4.40;99.90;;;;;;5071978;28;20471;-68
2021/10/24 03:53:17;;;;;;;24.57;18.73;;;4.40;99.90;;;;;;5071975;28;20455;-68
2021/10/24 03:55:46;;;;;;;21.30;17.97;;;4.40;99.90;;;;;;5071909;28;20808;-68
2021/10/24 03:58:13;;;;;;;19.03;17.33;;;4.40;99.90;;;;;;5071697;28;20537;-68
2021/10/24 04:00:40;;;;;;;21.07;18.60;;;4.40;99.90;;;;;;5071793;28;20487;-68
2021/10/24 04:03:06;;;;;;;18.90;16.90;;;4.40;99.90;;;;;;5071808;28;20937;-68
2021/10/24 04:05:34;;;;;;;19.60;17.60;;;4.40;99.90;;;;;;5071200;28;20448;-67
2021/10/24 04:08:01;;;;;;;19.00;17.00;;;4.40;99.90;;;;;;5071472;28;20439;-67
2021/10/24 04:10:29;;;;;;;22.07;17.43;;;4.40;99.90;;;;;;5071852;28;20439;-67
2021/10/24 04:12:58;;;;;;;21.27;19.00;;;4.30;99.90;;;;;;5071591;28;21118;-67
2021/10/24 04:15:25;;;;;;;24.83;19.50;;;4.30;99.90;;;;;;5071137;28;20460;-67
2021/10/24 04:17:52;;;;;;;20.43;18.47;;;4.30;99.90;;;;;;5071368;28;20810;-68
2021/10/24 04:20:21;;;;;;;27.63;20.20;;;4.30;99.90;;;;;;5071593;28;20842;-67
2021/10/24 04:22:50;;;;;;;20.27;18.03;;;4.30;99.90;;;;;;5071526;28;20451;-67
2021/10/24 04:25:17;;;;;;;29.53;20.30;;;4.20;99.90;;;;;;5071592;28;20447;-67
2021/10/24 04:27:44;;;;;;;21.07;18.73;;;4.20;99.90;;;;;;5071420;28;20451;-67
2021/10/24 04:30:12;;;;;;;25.67;19.37;;;4.30;99.90;;;;;;5071514;28;20431;-67
2021/10/24 04:32:42;;;;;;;22.33;18.10;;;4.20;99.90;;;;;;5071756;28;20463;-67
2021/10/24 04:35:10;;;;;;;20.67;18.57;;;4.20;99.90;;;;;;5071081;28;20504;-67
2021/10/24 04:37:37;;;;;;;22.00;18.47;;;4.20;99.90;;;;;;5071744;28;20443;-67
2021/10/24 04:40:05;;;;;;;24.97;18.70;;;4.10;99.90;;;;;;5071185;28;21113;-67
2021/10/24 04:42:34;;;;;;;25.67;19.73;;;4.10;99.90;;;;;;5071304;28;20464;-67
2021/10/24 04:45:01;;;;;;;24.00;18.50;;;4.10;99.90;;;;;;5071725;28;20450;-67
2021/10/24 04:47:29;;;;;;;24.60;20.90;;;4.10;99.90;;;;;;5071220;28;20447;-67
2021/10/24 04:49:55;;;;;;;21.03;18.80;;;4.10;99.90;;;;;;5071242;28;20440;-67
2021/10/24 04:52:22;;;;;;;25.73;20.60;;;4.10;99.90;;;;;;5071527;28;20475;-67
2021/10/24 04:54:49;;;;;;;22.23;19.67;;;4.10;99.90;;;;;;5071468;28;20443;-67
2021/10/24 04:57:15;;;;;;;24.87;20.83;;;4.00;99.90;;;;;;5071521;28;20447;-67
2021/10/24 04:59:42;;;;;;;27.90;19.80;;;4.00;99.90;;;;;;5071050;28;20988;-67
2021/10/24 05:02:09;;;;;;;20.93;18.70;;;4.00;99.90;;;;;;5071201;28;20475;-67
2021/10/24 05:04:38;;;;;;;20.70;17.53;;;4.00;99.90;;;;;;5071425;28;20454;-67
2021/10/24 05:07:05;;;;;;;20.27;17.83;;;4.10;99.90;;;;;;5071231;28;20473;-67
2021/10/24 05:09:31;;;;;;;23.60;18.93;;;4.00;99.90;;;;;;5071038;28;20443;-67
2021/10/24 05:11:58;;;;;;;21.03;18.93;;;4.00;99.90;;;;;;5071209;28;20468;-67
2021/10/24 05:14:25;;;;;;;22.97;18.60;;;4.00;99.90;;;;;;5071078;28;20965;-67
2021/10/24 05:16:51;;;;;;;25.40;20.10;;;4.00;99.90;;;;;;5071165;28;20529;-67
2021/10/24 05:19:18;;;;;;;20.70;18.20;;;4.00;99.90;;;;;;5070850;28;20458;-67
2021/10/24 05:21:46;;;;;;;21.87;18.03;;;4.00;99.90;;;;;;5071127;28;20590;-67
2021/10/24 05:24:13;;;;;;;18.77;16.80;;;4.00;99.90;;;;;;5071146;28;20443;-67
2021/10/24 05:26:40;;;;;;;21.10;17.07;;;4.00;99.90;;;;;;5072511;28;20835;-67
2021/10/24 05:29:06;;;;;;;23.33;18.07;;;4.00;99.90;;;;;;5086701;22;20505;-60
2021/10/24 05:31:33;;;;;;;20.30;16.63;;;3.90;99.90;;;;;;5066593;28;20841;-61
2021/10/24 05:34:01;;;;;;;24.27;18.60;;;3.90;99.90;;;;;;5074984;28;20439;-61
2021/10/24 05:36:27;;;;;;;30.97;19.20;;;3.80;99.90;;;;;;5062312;28;20436;-61
2021/10/24 05:38:55;;;;;;;24.30;18.70;;;3.80;99.90;;;;;;5051917;28;20482;-59
2021/10/24 05:41:22;;;;;;;23.30;18.80;;;3.70;99.90;;;;;;5074776;28;20482;-60
2021/10/24 05:43:49;;;;;;;26.50;19.50;;;3.70;99.90;;;;;;5074746;28;20440;-59
2021/10/24 05:46:15;;;;;;;20.20;17.20;;;3.70;99.90;;;;;;5074636;28;20906;-60
2021/10/24 05:48:42;;;;;;;22.60;18.67;;;3.70;99.90;;;;;;5065805;28;20479;-61
2021/10/24 05:51:10;;;;;;;20.70;18.50;;;3.60;99.90;;;;;;5054829;28;21047;-61
2021/10/24 05:53:37;;;;;;;20.13;17.23;;;3.60;99.90;;;;;;5054657;28;20851;-61
2021/10/24 05:56:06;;;;;;;27.00;19.23;;;3.60;99.90;;;;;;5054531;28;20479;-61
2021/10/24 05:58:33;;;;;;;23.13;18.37;;;3.60;99.90;;;;;;5054163;28;20470;-61
2021/10/24 06:00:59;;;;;;;22.77;19.90;;;3.60;99.90;;;;;;5055041;28;20479;-61
2021/10/24 06:03:26;;;;;;;26.17;17.93;;;3.60;99.90;;;;;;5054603;28;20851;-61
2021/10/24 06:05:53;;;;;;;21.20;18.17;;;3.60;99.90;;;;;;5054564;28;20452;-62
2021/10/24 06:08:23;;;;;;;24.20;18.83;;;3.60;99.90;;;;;;5054125;28;20445;-60
2021/10/24 06:10:50;;;;;;;22.03;18.00;;;3.70;99.90;;;;;;5054574;28;20540;-63
2021/10/24 06:13:18;;;;;;;34.50;18.47;;;3.70;99.90;;;;;;5063605;28;20537;-61
2021/10/24 06:15:46;;;;;;;22.43;19.53;;;3.80;99.90;;;;;;5074528;28;20474;-61
2021/10/24 06:18:14;;;;;;;25.10;17.60;;;3.80;99.90;;;;;;5073904;28;20443;-61
2021/10/24 06:20:41;;;;;;;22.23;18.47;;;3.80;99.90;;;;;;5073827;28;20475;-63
2021/10/24 06:23:08;;;;;;;24.93;19.57;;;3.90;99.90;;;;;;5074164;28;20449;-61
2021/10/24 06:25:35;;;;;;;22.23;18.97;;;3.90;99.90;;;;;;5074090;28;20448;-60
2021/10/24 06:28:01;;;;;;;23.00;20.23;;;4.00;99.90;;;;;;5073906;28;20446;-61
2021/10/24 06:30:29;;;;;;;20.73;17.70;;;4.00;99.90;;;;;;5073854;28;20467;-60
2021/10/24 06:32:56;;;;;;;27.40;20.47;;;4.00;99.90;;;;;;5073724;28;20981;-61
2021/10/24 06:35:23;;;;;;;23.07;18.97;;;4.10;99.90;;;;;;5073929;28;20447;-61
2021/10/24 06:37:50;;;;;;;20.23;18.10;;;4.20;99.90;;;;;;5073545;28;20431;-62
2021/10/24 06:40:17;;;;;;;21.27;16.87;;;4.20;99.90;;;;;;5073849;28;20843;-60
2021/10/24 06:42:44;;;;;;;22.40;17.70;;;4.30;99.90;;;;;;5071081;28;20459;-61
2021/10/24 06:45:11;;;;;;;24.17;17.80;;;4.40;99.90;;;;;;5053722;28;20447;-62
2021/10/24 06:47:40;;;;;;;24.33;17.30;;;4.40;99.90;;;;;;5053675;28;20453;-63
2021/10/24 06:50:09;;;;;;;20.20;17.77;;;4.50;99.90;;;;;;5053299;28;20460;-62
2021/10/24 06:52:36;;;;;;;18.10;16.27;;;4.50;99.90;;;;;;5053614;28;20448;-62
2021/10/24 06:55:04;;;;;;;19.40;16.77;;;4.70;99.90;;;;;;5053440;28;20953;-62
2021/10/24 06:57:33;;;;;;;20.80;16.50;;;4.70;99.90;;;;;;5053516;28;20502;-65
2021/10/24 07:00:00;;;;;;;17.03;15.23;;;4.80;99.90;;;;;;5048201;28;20594;-63
2021/10/24 07:02:27;;;;;;;18.63;16.83;;;4.90;99.90;;;;;;5041890;28;20456;-63
2021/10/24 07:04:55;;;;;;;21.60;15.70;;;4.90;99.90;;;;;;5041668;28;21028;-62
2021/10/24 07:07:23;;;;;;;18.60;16.63;;;5.00;99.90;;;;;;5046591;28;21061;-63
2021/10/24 07:09:50;;;;;;;17.17;15.63;;;5.10;99.90;;;;;;5060644;28;20471;-62
2021/10/24 07:12:17;;;;;;;17.00;15.30;;;5.10;99.90;;;;;;5061692;28;20445;-64
2021/10/24 07:14:44;;;;;;;17.87;16.03;;;5.20;99.90;;;;;;5061746;28;20447;-63
2021/10/24 07:17:10;;;;;;;15.70;14.10;;;5.20;99.90;;;;;;5061396;28;20454;-65
2021/10/24 07:19:37;;;;;;;18.63;16.87;;;5.30;99.90;;;;;;5050551;28;20480;-64
2021/10/24 07:22:05;;;;;;;17.63;15.70;;;5.30;99.90;;;;;;5041551;28;20530;-64
2021/10/24 07:24:32;;;;;;;15.83;14.53;;;5.40;99.90;;;;;;5041235;28;20451;-64
2021/10/24 07:27:00;;;;;;;15.33;14.03;;;5.50;99.90;;;;;;5043658;28;21172;-64
2021/10/24 07:29:26;;;;;;;16.23;13.43;;;5.50;99.90;;;;;;5060817;28;20560;-63
2021/10/24 07:31:55;;;;;;;14.67;13.37;;;5.60;99.90;;;;;;5060927;28;20452;-64
2021/10/24 07:34:24;;;;;;;14.37;13.20;;;5.70;99.90;;;;;;5060716;28;20451;-64
2021/10/24 07:36:51;;;;;;;15.33;14.03;;;5.80;99.90;;;;;;5060745;28;20447;-64
2021/10/24 07:39:19;;;;;;;16.33;14.63;;;5.90;99.90;;;;;;5050029;28;20563;-63
2021/10/24 07:41:46;;;;;;;13.87;12.60;;;6.00;99.90;;;;;;5040809;28;20488;-64
2021/10/24 07:44:13;;;;;;;17.13;13.20;;;6.10;99.90;;;;;;5040998;28;21109;-64
2021/10/24 07:46:40;;;;;;;15.73;14.20;;;6.20;99.90;;;;;;5040840;28;20455;-63
2021/10/24 07:49:07;;;;;;;14.47;13.10;;;6.40;99.90;;;;;;5040551;28;20974;-64
2021/10/24 07:51:34;;;;;;;14.33;13.17;;;6.50;99.90;;;;;;5040922;28;20440;-64
2021/10/24 07:54:02;;;;;;;14.93;13.40;;;6.60;99.90;;;;;;5040786;28;20455;-63
2021/10/24 07:56:33;;;;;;;15.30;14.20;;;6.70;99.90;;;;;;5040829;28;20915;-63
2021/10/24 07:59:00;;;;;;;13.23;12.13;;;6.70;99.90;;;;;;5040076;28;20778;-63
2021/10/24 08:01:27;;;;;;;14.30;13.30;;;6.90;99.90;;;;;;5043473;28;20776;-62
2021/10/24 08:03:54;;;;;;;13.20;12.20;;;7.00;99.90;;;;;;5059910;28;20437;-63
2021/10/24 08:06:21;;;;;;;14.17;13.10;;;7.10;99.90;;;;;;5060488;28;20450;-64
2021/10/24 08:08:48;;;;;;;15.00;14.00;;;7.30;99.90;;;;;;5060455;28;20915;-64
2021/10/24 08:11:15;;;;;;;14.93;13.87;;;7.40;99.90;;;;;;5045255;28;20455;-64
2021/10/24 08:13:43;;;;;;;13.53;12.53;;;7.50;99.90;;;;;;5040956;28;20455;-63
2021/10/24 08:16:10;;;;;;;14.83;13.67;;;7.60;99.90;;;;;;5044218;28;20894;-63
2021/10/24 08:18:37;;;;;;;14.63;13.70;;;7.70;99.90;;;;;;5042826;28;20782;-63
2021/10/24 08:21:04;;;;;;;16.00;14.40;;;7.70;99.90;;;;;;5055649;28;20483;-63
2021/10/24 08:23:31;;;;;;;13.30;12.47;;;7.80;99.90;;;;;;5063484;28;20874;-63
2021/10/24 08:25:57;;;;;;;15.73;14.43;;;7.90;99.90;;;;;;5064854;28;20458;-62
2021/10/24 08:28:24;;;;;;;14.90;14.20;;;8.00;99.90;;;;;;5057673;28;20455;-62
2021/10/24 08:30:52;;;;;;;16.13;14.97;;;8.10;99.90;;;;;;5042085;28;20440;-63
2021/10/24 08:33:19;;;;;;;15.17;14.20;;;8.20;99.90;;;;;;5044091;28;20455;-61
2021/10/24 08:35:47;;;;;;;14.30;13.40;;;8.30;99.90;;;;;;5043163;28;20463;-62
2021/10/24 08:38:13;;;;;;;16.30;15.10;;;8.30;99.90;;;;;;5045430;28;20870;-61
2021/10/24 08:40:41;;;;;;;14.63;13.70;;;8.50;99.90;;;;;;5062437;28;20485;-62
2021/10/24 08:43:15;;;;;;;15.40;14.47;;;8.60;99.90;;;;;;5063031;28;20462;-61
2021/10/24 08:45:43;;;;;;;15.50;14.50;;;8.70;99.90;;;;;;5062385;28;20447;-63
2021/10/24 08:48:11;;;;;;;16.23;15.17;;;8.80;99.90;;;;;;5063995;28;20920;-61
2021/10/24 08:50:38;;;;;;;15.50;14.50;;;8.90;99.90;;;;;;5060417;28;20447;-63
2021/10/24 08:53:07;;;;;;;16.60;15.70;;;9.00;99.90;;;;;;5065957;28;20450;-63
2021/10/24 08:55:34;;;;;;;15.17;14.37;;;9.10;99.90;;;;;;5064035;28;20450;-63
2021/10/24 08:58:01;;;;;;;14.17;13.47;;;9.10;99.90;;;;;;5064490;28;20458;-63
2021/10/24 09:00:28;;;;;;;15.63;14.77;;;9.20;99.90;;;;;;5065079;28;20462;-63
2021/10/24 09:02:57;;;;;;;15.63;14.67;;;9.30;99.90;;;;;;5060841;28;20451;-63
2021/10/24 09:05:32;;;;;;;14.83;14.00;;;9.50;99.90;;;;;;5050204;28;20453;-63
2021/10/24 09:07:59;;;;;;;13.77;13.20;;;9.60;99.90;;;;;;5052063;28;20455;-62
2021/10/24 09:10:48;;;;;;;14.53;13.63;;;9.60;99.90;;;;;;5050768;28;20571;-63
2021/10/24 09:13:16;;;;;;;14.20;13.47;;;9.70;99.90;;;;;;5048136;28;20456;-63
2021/10/24 09:15:53;;;;;;;15.93;14.83;;;9.80;99.90;;;;;;5057087;28;20454;-63
2021/10/24 09:18:22;;;;;;;15.37;14.53;;;9.90;99.90;;;;;;5063470;28;21256;-63
2021/10/24 09:20:50;;;;;;;15.00;14.10;;;10.00;99.90;;;;;;5063582;28;20482;-63
2021/10/24 09:23:17;;;;;;;15.73;14.97;;;10.00;99.90;;;;;;5057265;28;20455;-63
2021/10/24 09:25:56;;;;;;;16.13;15.20;;;10.10;99.90;;;;;;5043856;28;20448;-62
2021/10/24 09:28:25;;;;;;;16.17;15.43;;;10.20;99.90;;;;;;5043184;28;20749;-63
2021/10/24 09:31:05;;;;;;;16.10;15.30;;;10.40;99.90;;;;;;5043446;28;20517;-62
2021/10/24 09:33:46;;;;;;;16.90;16.10;;;10.40;99.90;;;;;;5023201;28;20452;-66
2021/10/24 09:36:25;;;;;;;17.40;16.07;;;10.50;99.90;;;;;;5023502;28;20479;-64
2021/10/24 09:39:07;;;;;;;16.30;15.40;;;10.70;99.90;;;;;;5022978;28;20475;-63
2021/10/24 09:41:36;;;;;;;16.10;15.50;;;10.80;99.90;;;;;;5034702;28;21129;-64
2021/10/24 09:44:12;;;;;;;16.80;16.00;;;10.80;99.90;;;;;;5063147;28;20455;-63
2021/10/24 09:46:48;;;;;;;19.70;18.53;;;11.00;99.90;;;;;;5063104;28;20450;-64
2021/10/24 09:49:18;;;;;;;17.00;16.20;;;11.00;99.90;;;;;;5062834;28;20539;-63
2021/10/24 09:51:48;;;;;;;17.50;16.60;;;11.10;99.90;;;;;;5063050;28;20505;-63
2021/10/24 09:54:24;;;;;;;17.50;16.50;;;11.20;99.90;;;;;;5051419;28;20463;-63
2021/10/24 09:56:53;;;;;;;17.40;16.50;;;11.30;99.90;;;;;;5042912;28;20458;-64
2021/10/24 09:59:22;;;;;;;17.53;16.50;;;11.40;99.90;;;;;;5042459;28;20472;-63
2021/10/24 10:01:52;;;;;;;18.30;17.10;;;11.50;99.90;;;;;;5042778;28;20479;-63
2021/10/24 10:04:23;;;;;;;16.80;16.00;;;11.60;99.90;;;;;;5042758;28;20447;-65
2021/10/24 10:06:53;;;;;;;16.47;15.60;;;11.60;99.90;;;;;;5056548;28;20451;-64
2021/10/24 10:09:21;;;;;;;17.47;16.60;;;11.80;99.90;;;;;;5062320;28;20498;-63
2021/10/24 10:11:54;;;;;;;19.07;18.07;;;12.00;99.90;;;;;;5061654;28;20519;-64
2021/10/24 10:14:26;;;;;;;17.77;16.47;;;12.00;99.90;;;;;;5062699;28;21175;-63
2021/10/24 10:17:01;;;;;;;17.77;16.97;;;12.20;99.90;;;;;;5062436;28;20870;-63
2021/10/24 10:19:31;;;;;;;17.10;16.37;;;12.40;99.90;;;;;;5045173;28;20593;-64
2021/10/24 10:22:29;;;;;;;18.33;17.40;;;12.50;99.90;;;;;;5042478;28;20483;-63
2021/10/24 10:24:58;;;;;;;17.60;16.77;;;12.60;99.90;;;;;;5042370;28;20459;-64
2021/10/24 10:27:40;;;;;;;17.27;16.50;;;12.70;99.90;;;;;;5042060;28;20444;-63
2021/10/24 10:30:09;;;;;;;17.90;17.00;;;13.00;99.90;;;;;;5050617;28;20491;-64
2021/10/24 10:32:38;;;;;;;17.50;16.70;;;13.30;99.90;;;;;;5062073;28;20447;-62
2021/10/24 10:35:07;;;;;;;19.10;18.10;;;13.60;99.90;;;;;;5062021;28;20455;-64
2021/10/24 10:37:57;;;;;;;19.13;18.00;;;13.70;99.90;;;;;;5062283;28;21192;-63
2021/10/24 10:40:28;;;;;;;19.40;18.40;;;14.00;99.70;;;;;;5057682;28;20474;-63
2021/10/24 10:42:58;;;;;;;19.23;18.37;;;14.20;99.90;;;;;;5044765;28;20484;-63
2021/10/24 10:45:40;;;;;;;18.60;17.90;;;14.50;98.50;;;;;;5042057;28;20451;-62
2021/10/24 10:48:09;;;;;;;18.43;17.63;;;14.90;97.20;;;;;;5041987;28;21042;-64
2021/10/24 10:50:49;;;;;;;17.90;17.10;;;15.40;94.50;;;;;;5052597;28;20444;-63
2021/10/24 10:54:02;;;;;;;18.93;18.03;;;15.70;91.30;;;;;;5059534;28;20439;-64
2021/10/24 10:56:52;;;;;;;18.80;17.97;;;16.00;90.30;;;;;;5073668;28;20812;-64
2021/10/24 10:59:31;;;;;;;19.87;18.87;;;16.30;85.80;;;;;;5073333;28;20467;-64
2021/10/24 11:02:27;;;;;;;21.53;20.00;;;16.70;84.30;;;;;;5073212;28;20570;-64
2021/10/24 11:04:58;;;;;;;19.57;18.67;;;16.90;81.70;;;;;;5068800;28;20444;-63
2021/10/24 11:07:42;;;;;;;19.90;18.83;;;17.60;77.50;;;;;;5053502;28;20494;-63
2021/10/24 11:10:14;;;;;;;19.43;18.70;;;18.30;71.80;;;;;;5053203;28;21084;-63
2021/10/24 11:12:49;;;;;;;19.93;19.13;;;19.00;67.00;;;;;;5053775;28;20439;-64
2021/10/24 11:15:33;;;;;;;18.33;17.63;;;19.50;63.10;;;;;;5053478;28;20940;-64
2021/10/24 11:18:05;;;;;;;19.90;19.00;;;20.40;59.40;;;;;;5057138;28;20506;-64
2021/10/24 11:20:47;;;;;;;19.90;19.10;;;22.20;56.10;;;;;;5052769;28;20467;-62
2021/10/24 11:23:19;;;;;;;21.47;20.57;;;22.50;52.00;;;;;;5052311;28;20487;-64
2021/10/24 11:25:46;;;;;;;19.90;19.10;;;23.50;49.90;;;;;;5052237;28;20455;-62
2021/10/24 11:28:19;;;;;;;21.27;20.37;;;24.00;46.90;;;;;;5052612;28;20944;-62
2021/10/24 11:30:55;;;;;;;19.93;19.13;;;24.30;45.80;;;;;;5070118;28;20447;-62
2021/10/24 11:33:21;;;;;;;22.30;21.30;;;25.00;44.50;;;;;;5072856;28;20492;-62
2021/10/24 11:35:48;;;;;;;21.00;20.20;;;25.80;43.20;;;;;;5072577;28;20439;-62
2021/10/24 11:38:15;;;;;;;20.73;19.83;;;26.30;40.90;;;;;;5072351;28;20782;-62
2021/10/24 11:40:45;;;;;;;20.40;19.50;;;26.40;40.70;;;;;;5069184;28;20451;-62
2021/10/24 11:43:14;;;;;;;21.93;21.03;;;27.80;39.10;;;;;;5072707;28;20587;-62
2021/10/24 11:45:44;;;;;;;20.63;19.77;;;26.80;38.30;;;;;;5072791;28;20443;-62
2021/10/24 11:48:15;;;;;;;21.10;20.10;;;26.10;38.80;;;;;;5072368;28;20443;-62
2021/10/24 11:50:48;;;;;;;22.27;21.27;;;26.20;39.60;;;;;;5089597;22;20544;-67
2021/10/24 11:53:23;;;;;;;20.97;20.03;;;25.90;38.50;;;;;;5066013;28;20829;-67
2021/10/24 11:55:52;;;;;;;21.50;20.50;;;24.40;39.30;;;;;;5072045;28;20953;-68
2021/10/24 11:58:33;;;;;;;21.53;20.57;;;24.50;40.20;;;;;;5071924;28;20453;-67
2021/10/24 12:01:07;;;;;;;21.23;20.33;;;24.30;40.90;;;;;;5072231;28;20506;-67
2021/10/24 12:03:35;;;;;;;21.67;20.67;;;25.10;40.20;;;;;;5051484;28;20868;-67
2021/10/24 12:06:02;;;;;;;21.00;20.20;;;24.40;40.40;;;;;;5052036;28;20443;-67
2021/10/24 12:08:46;;;;;;;20.30;19.40;;;24.10;41.60;;;;;;5051675;28;20445;-67
2021/10/24 12:11:21;;;;;;;21.13;20.23;;;24.50;41.00;;;;;;5051661;28;20470;-67
2021/10/24 12:13:49;;;;;;;19.40;18.60;;;23.80;40.70;;;;;;5051524;28;20440;-67
2021/10/24 12:16:33;;;;;;;20.60;19.67;;;23.20;41.70;;;;;;5051812;28;20444;-67
2021/10/24 12:19:12;;;;;;;21.20;20.30;;;22.50;43.70;;;;;;5051649;28;20451;-67
2021/10/24 12:21:39;;;;;;;21.00;20.07;;;22.50;43.60;;;;;;5051566;28;20452;-67
2021/10/24 12:24:17;;;;;;;20.60;19.70;;;23.10;43.50;;;;;;5051737;28;20487;-67
2021/10/24 12:26:43;;;;;;;20.10;19.03;;;23.50;42.90;;;;;;5051462;28;20440;-67
2021/10/24 12:29:19;;;;;;;19.23;18.40;;;22.90;43.10;;;;;;5051584;28;20448;-67
2021/10/24 12:32:07;;;;;;;18.70;18.00;;;23.30;42.70;;;;;;5051702;28;20447;-67
2021/10/24 12:34:33;;;;;;;20.67;19.87;;;24.30;43.40;;;;;;5051438;28;20451;-67
2021/10/24 12:37:00;;;;;;;20.80;19.90;;;25.30;40.60;;;;;;5051364;28;20440;-67
2021/10/24 12:39:27;;;;;;;21.20;20.30;;;25.00;39.60;;;;;;5037262;28;20479;-67
2021/10/24 12:41:54;;;;;;;20.20;19.40;;;23.80;40.20;;;;;;5031720;28;20548;-67
2021/10/24 12:44:32;;;;;;;20.50;19.70;;;23.10;41.30;;;;;;5031540;28;20820;-67